Time;durP1;ratioP1;P1;durP2;ratioP2;P2;SDS_P1;SDS_P2;PMS_P1;PMS_P2;Temp;Humidity;BMP_temperature;BMP_pressure;BME280_temperature;BME280_humidity;BME280_pressure;Samples;Min_cycle;Max_cycle;Signal;HPM_P1;HPM_P2
2022/03/19 00:02:45;;;;;;;16.85;11.73;;;;;;;10.91;23.95;102782.36;2084940;93;34890;-87
2022/03/19 00:06:11;;;;;;;23.40;12.95;;;;;;;10.87;24.03;102764.31;2129197;90;25771;-87
2022/03/19 00:09:49;;;;;;;20.92;11.78;;;;;;;10.87;24.03;102764.31;2159602;90;25821;-89
2022/03/19 00:13:28;;;;;;;20.70;12.15;;;;;;;10.83;24.16;102764.94;2140515;90;25695;-86
2022/03/19 00:16:52;;;;;;;19.62;12.93;;;;;;;10.80;24.20;102775.19;2100828;91;26314;-89
2022/03/19 00:20:16;;;;;;;20.45;13.68;;;;;;;10.78;24.26;102774.59;2079369;91;25914;-85
2022/03/19 00:23:59;;;;;;;15.65;11.83;;;;;;;10.73;24.33;102782.52;2122382;89;25719;-86
2022/03/19 00:27:25;;;;;;;19.62;13.68;;;;;;;10.70;24.38;102775.44;2031736;94;25829;-85
2022/03/19 00:30:57;;;;;;;20.15;12.78;;;;;;;10.67;24.42;102766.11;2025109;91;25412;-86
2022/03/19 00:34:40;;;;;;;19.85;12.00;;;;;;;10.66;24.46;102766.00;2031497;93;25903;-85
2022/03/19 00:38:04;;;;;;;20.68;12.43;;;;;;;10.63;24.51;102766.70;2025250;93;25939;-84
2022/03/19 00:41:38;;;;;;;17.20;12.55;;;;;;;10.60;24.54;102769.16;2002689;97;25879;-85
2022/03/19 00:45:20;;;;;;;22.27;13.20;;;;;;;10.57;24.57;102765.05;2013445;96;25400;-85
2022/03/19 00:48:53;;;;;;;23.15;13.78;;;;;;;10.54;24.60;102764.45;2013699;97;25369;-84
2022/03/19 00:52:16;;;;;;;21.55;12.93;;;;;;;10.52;24.62;102766.45;2011640;96;25789;-84
2022/03/19 00:55:56;;;;;;;17.40;12.03;;;;;;;10.51;24.66;102756.84;2011891;97;25365;-89
2022/03/19 00:59:51;;;;;;;20.52;13.53;;;;;;;10.48;24.69;102765.36;2011103;96;26042;-88
2022/03/19 01:03:27;;;;;;;16.55;11.63;;;;;;;10.46;24.72;102767.38;2013242;96;25967;-89
2022/03/19 01:07:04;;;;;;;20.85;12.25;;;;;;;10.43;24.77;102752.46;2009611;96;25814;-88
2022/03/19 01:10:35;;;;;;;20.02;12.28;;;;;;;10.40;24.81;102750.56;2013093;96;25857;-87
2022/03/19 01:14:03;;;;;;;24.10;13.05;;;;;;;10.38;24.85;102746.05;2110132;91;25939;-88
2022/03/19 01:17:31;;;;;;;21.70;13.60;;;;;;;10.36;24.86;102745.03;2135554;91;25778;-86
2022/03/19 01:20:56;;;;;;;18.92;13.00;;;;;;;10.33;24.88;102746.17;2059540;94;26565;-87
2022/03/19 01:24:28;;;;;;;17.25;11.85;;;;;;;10.31;24.92;102734.73;2115777;91;25739;-88
2022/03/19 01:28:10;;;;;;;23.32;13.45;;;;;;;10.30;24.93;102734.25;2112701;91;25891;-84
2022/03/19 01:31:38;;;;;;;18.75;12.88;;;;;;;10.28;24.95;102739.76;2223206;86;25815;-88
2022/03/19 01:35:12;;;;;;;17.10;13.13;;;;;;;10.27;24.94;102743.18;2233811;87;25596;-86
2022/03/19 01:38:37;;;;;;;21.30;14.25;;;;;;;10.24;24.97;102747.76;2253346;85;25645;-84
2022/03/19 01:42:13;;;;;;;23.90;13.40;;;;;;;10.23;24.98;102747.67;2261740;85;25674;-87
2022/03/19 01:45:53;;;;;;;20.52;13.68;;;;;;;10.22;25.01;102751.06;2301141;84;25865;-89
2022/03/19 01:49:13;;;;;;;17.42;12.98;;;;;;;10.20;25.01;102755.30;2186822;88;25868;-86
2022/03/19 01:52:55;;;;;;;;;;;;;;;;;;;;;
2022/03/19 01:56:26;;;;;;;21.27;13.55;;;;;;;10.17;25.02;102750.38;2183184;87;25753;-87
2022/03/19 01:59:59;;;;;;;20.55;13.45;;;;;;;10.16;25.05;102743.38;2184281;89;25883;-85
2022/03/19 02:03:24;;;;;;;20.17;13.48;;;;;;;10.15;25.05;102744.56;2180995;89;25875;-87
2022/03/19 02:07:01;;;;;;;26.37;14.65;;;;;;;10.12;25.08;102745.67;2161780;88;25775;-86
2022/03/19 02:10:34;;;;;;;;;;;;;;;;;;;;;
2022/03/19 02:13:56;;;;;;;22.17;12.80;;;;;;;10.08;25.11;102743.27;2146873;90;25926;-88
2022/03/19 02:21:58;;;;;;;25.43;14.05;;;;;;;10.05;25.15;102751.30;2052113;93;25799;-89
2022/03/19 02:25:37;;;;;;;20.12;12.75;;;;;;;10.02;25.21;102749.80;2052385;95;26504;-85
2022/03/19 02:29:16;;;;;;;20.23;14.43;;;;;;;9.98;25.26;102751.31;2054272;94;25885;-82
2022/03/19 02:32:49;;;;;;;19.92;13.43;;;;;;;9.95;25.30;102745.91;2052836;93;25346;-88
2022/03/19 02:36:16;;;;;;;22.10;13.93;;;;;;;9.92;25.32;102754.45;2052994;93;25810;-88
2022/03/19 02:39:41;;;;;;;23.18;14.03;;;;;;;9.90;25.35;102746.92;2053007;95;25757;-89
2022/03/19 02:43:08;;;;;;;24.47;14.68;;;;;;;9.88;25.38;102751.12;2067946;93;26929;-89
2022/03/19 02:46:59;;;;;;;24.15;14.23;;;;;;;9.86;25.40;102756.66;2073219;94;25788;-88
2022/03/19 02:50:29;;;;;;;;;;;;;;;9.84;25.43;102759.55;2084336;93;25769;-86
2022/03/19 02:53:57;;;;;;;23.05;13.08;;;;;;;9.83;25.43;102761.66;2185667;89;25933;-88
2022/03/19 02:57:28;;;;;;;23.75;15.30;;;;;;;9.81;25.46;102755.84;2186134;89;25569;-83
2022/03/19 03:01:03;;;;;;;26.45;14.15;;;;;;;9.77;25.46;102762.56;2264602;85;25441;-89
2022/03/19 03:04:39;;;;;;;26.93;14.00;;;;;;;9.78;25.47;102762.16;2214993;88;25935;-89
2022/03/19 03:08:13;;;;;;;25.70;14.23;;;;;;;9.74;25.50;102766.27;2284738;84;25616;-84
2022/03/19 03:11:58;;;;;;;21.30;13.15;;;;;;;9.73;25.50;102767.08;2301996;84;25809;-90
2022/03/19 03:15:32;;;;;;;24.60;14.58;;;;;;;9.72;25.51;102767.89;2272146;86;26589;-91
2022/03/19 03:19:07;;;;;;;22.62;14.70;;;;;;;9.72;25.52;102768.27;2243546;85;25722;-92
2022/03/19 03:22:37;;;;;;;23.07;13.08;;;;;;;9.70;25.55;102765.58;2269039;85;25952;-90
2022/03/19 03:26:08;;;;;;;21.20;13.48;;;;;;;9.66;25.60;102765.78;2247530;85;25747;-88
2022/03/19 03:29:41;;;;;;;19.37;14.43;;;;;;;9.64;25.64;102763.46;2266803;85;25278;-89
2022/03/19 03:33:14;;;;;;;20.80;12.65;;;;;;;9.62;25.68;102769.39;2259166;85;25767;-86
2022/03/19 03:36:38;;;;;;;19.90;13.30;;;;;;;9.60;25.75;102764.47;2263274;86;26639;-89
2022/03/19 03:40:12;;;;;;;23.75;13.95;;;;;;;9.58;25.78;102768.67;2260601;85;25782;-87
2022/03/19 03:43:46;;;;;;;19.92;13.60;;;;;;;9.55;25.85;102770.70;2262448;86;25815;-86
2022/03/19 03:47:28;;;;;;;21.57;13.93;;;;;;;9.53;25.91;102773.99;2199976;87;25855;-87
2022/03/19 03:51:14;;;;;;;21.70;14.33;;;;;;;9.52;25.97;102779.98;2214746;87;25893;-87
2022/03/19 03:54:30;;;;;;;22.45;15.15;;;;;;;9.48;26.02;102778.87;2208091;87;25841;-89
2022/03/19 03:57:56;;;;;;;22.37;15.20;;;;;;;9.45;26.06;102771.78;2205501;84;25759;-86
2022/03/19 04:01:28;;;;;;;27.40;15.58;;;;;;;9.43;26.13;102774.67;2201797;87;25885;-85
2022/03/19 04:05:13;;;;;;;27.42;15.55;;;;;;;9.39;26.19;102772.67;2200912;87;26131;-88
2022/03/19 04:08:42;;;;;;;33.23;18.50;;;;;;;9.36;26.26;102773.77;2152952;89;25888;-89
2022/03/19 04:12:26;;;;;;;32.35;17.65;;;;;;;9.34;26.32;102767.55;2143838;90;25794;-89
2022/03/19 04:15:50;;;;;;;26.52;16.52;;;;;;;9.31;26.38;102776.45;2181884;89;25608;-90
2022/03/19 04:19:36;;;;;;;35.75;18.70;;;;;;;9.28;26.45;102774.04;2178980;90;25807;-89
2022/03/19 04:23:03;;;;;;;32.30;17.48;;;;;;;9.25;26.51;102776.06;2181749;89;25723;-90
2022/03/19 04:26:33;;;;;;;32.73;18.62;;;;;;;9.22;26.58;102775.86;2176590;89;25794;-90
2022/03/19 04:30:08;;;;;;;;;;;;;;;9.19;26.63;102778.25;2129724;92;26301;-87
2022/03/19 04:33:43;;;;;;;30.07;17.90;;;;;;;9.17;26.71;102780.73;2118801;92;25741;-89
2022/03/19 04:37:16;;;;;;;32.95;19.27;;;;;;;9.15;26.74;102782.34;2126356;92;25856;-89
2022/03/19 04:40:45;;;;;;;30.48;18.23;;;;;;;9.12;26.80;102787.34;2108685;91;25723;-91
2022/03/19 04:44:09;;;;;;;34.85;19.40;;;;;;;9.11;26.85;102784.25;2154360;90;25956;-90
2022/03/19 04:47:42;;;;;;;35.40;20.32;;;;;;;9.10;26.92;102792.83;2151041;90;25743;-90
2022/03/19 04:51:22;;;;;;;38.75;20.55;;;;;;;9.08;26.96;102789.61;2156659;90;25314;-87
2022/03/19 04:54:43;;;;;;;41.25;20.80;;;;;;;9.08;27.03;102792.21;2133144;91;25794;-86
2022/03/19 04:58:18;;;;;;;43.33;22.27;;;;;;;9.07;27.08;102790.41;2121409;86;25700;-84
2022/03/19 05:01:57;;;;;;;39.48;22.20;;;;;;;9.05;27.13;102786.83;2060400;94;25791;-90
2022/03/19 05:05:24;;;;;;;42.48;23.50;;;;;;;9.06;27.17;102798.63;2017637;95;25887;-87
2022/03/19 05:11:12;;;;;;;41.75;24.18;;;;;;;9.06;27.20;102790.83;1997831;97;25840;-89
2022/03/19 05:12:45;;;;;;;48.40;24.63;;;;;;;9.07;27.24;102796.92;1999601;96;25817;-86
2022/03/19 05:16:23;;;;;;;;;;;;;;;;;;;;;
2022/03/19 05:19:57;;;;;;;44.20;25.27;;;;;;;9.08;27.33;102802.63;1936948;100;26007;-85
2022/03/19 05:23:47;;;;;;;44.45;25.10;;;;;;;9.11;27.34;102799.86;1879353;104;25875;-84
2022/03/19 05:27:10;;;;;;;45.70;26.73;;;;;;;9.14;27.40;102807.84;1875585;104;26391;-80
2022/03/19 05:30:43;;;;;;;45.65;25.52;;;;;;;9.18;27.42;102805.09;1863790;104;25824;-82
2022/03/19 05:34:30;;;;;;;47.27;26.87;;;;;;;9.22;27.48;102817.50;1873451;105;25840;-86
2022/03/19 05:37:57;;;;;;;54.63;29.23;;;;;;;9.23;27.48;102814.99;1891156;103;25827;-87
2022/03/19 05:41:33;;;;;;;49.75;27.85;;;;;;;9.29;27.54;102818.83;1874776;104;25866;-88
2022/03/19 05:48:33;;;;;;;50.63;26.27;;;;;;;9.37;27.56;102821.12;1713959;113;26047;-86
2022/03/19 05:52:30;;;;;;;51.23;27.32;;;;;;;9.41;27.67;102820.53;1782498;110;26038;-88
2022/03/19 05:56:25;;;;;;;44.58;27.90;;;;;;;9.49;27.68;102835.80;1780208;107;25864;-86
2022/03/19 06:00:24;;;;;;;49.70;27.02;;;;;;;9.53;27.72;102832.59;1831426;106;25843;-88
2022/03/19 06:04:07;;;;;;;50.85;28.45;;;;;;;9.58;27.80;102839.89;1858036;104;25820;-86
2022/03/19 06:07:54;;;;;;;48.40;27.48;;;;;;;9.63;27.91;102837.61;1857884;104;25789;-90
2022/03/19 06:11:27;;;;;;;51.45;28.45;;;;;;;9.70;27.86;102845.03;1862367;102;25869;-90
2022/03/19 06:14:56;;;;;;;;;;;;;;;9.73;27.99;102834.81;1902526;102;25778;-88
2022/03/19 06:18:22;;;;;;;52.43;29.20;;;;;;;9.80;28.14;102840.03;1868872;100;26558;-87
2022/03/19 06:22:07;;;;;;;56.37;29.80;;;;;;;9.84;28.24;102844.23;1934313;98;25747;-90
2022/03/19 06:25:49;;;;;;;50.88;28.25;;;;;;;9.91;28.48;102849.45;1962006;98;25786;-90
2022/03/19 06:29:22;;;;;;;49.08;28.83;;;;;;;9.98;28.44;102852.95;2017058;92;25749;-89
2022/03/19 06:32:48;;;;;;;50.98;29.32;;;;;;;10.04;28.53;102860.28;2049927;93;25911;-89
2022/03/19 06:40:06;;;;;;;50.05;28.75;;;;;;;10.17;28.70;102870.30;2032836;95;25704;-88
2022/03/19 06:43:38;;;;;;;58.52;29.23;;;;;;;10.26;28.72;102882.15;2042472;93;25841;-84
2022/03/19 06:47:17;;;;;;;;;;;;;;;;;;;;;
2022/03/19 06:50:34;;;;;;;52.35;28.80;;;;;;;10.40;28.89;102879.65;2207012;87;25743;-90
2022/03/19 06:53:54;;;;;;;50.28;29.60;;;;;;;10.49;28.87;102887.14;2215545;87;25820;-87
2022/03/19 06:57:21;;;;;;;52.90;29.60;;;;;;;10.57;28.98;102887.25;2222531;87;25874;-87
2022/03/19 07:01:00;;;;;;;53.85;28.32;;;;;;;10.66;28.88;102888.22;2347228;81;25665;-91
2022/03/19 07:04:29;;;;;;;50.37;28.13;;;;;;;10.73;28.93;102890.44;2361049;82;25613;-90
2022/03/19 07:07:57;;;;;;;47.50;27.77;;;;;;;10.83;28.83;102892.81;2360217;82;25602;-90
2022/03/19 07:11:39;;;;;;;47.65;26.25;;;;;;;10.91;28.90;102894.59;2363601;82;25711;-88
2022/03/19 07:15:28;;;;;;;52.30;26.85;;;;;;;11.01;28.96;102892.16;2351786;82;25608;-81
2022/03/19 07:18:46;;;;;;;54.85;26.48;;;;;;;11.11;28.91;102891.51;2362949;82;25687;-91
2022/03/19 07:22:07;;;;;;;43.98;26.35;;;;;;;11.21;28.85;102892.97;2371385;81;25603;-84
2022/03/19 07:25:40;;;;;;;47.00;24.33;;;;;;;11.33;28.65;102896.72;2372464;82;30791;-91
2022/03/19 07:32:47;;;;;;;37.40;23.85;;;;;;;12.87;28.30;102903.47;2211878;86;25775;-87
2022/03/19 07:36:28;;;;;;;36.88;22.32;;;;;;;16.71;25.73;102903.52;2215300;87;25767;-90
2022/03/19 07:40:02;;;;;;;34.27;22.73;;;;;;;20.03;23.02;102901.82;2217458;87;25877;-85
2022/03/19 07:43:26;;;;;;;29.85;21.25;;;;;;;22.49;21.05;102911.17;2225682;86;25727;-83
2022/03/19 07:46:56;;;;;;;29.75;21.17;;;;;;;24.68;19.11;102928.10;2220275;86;25809;-84
2022/03/19 07:50:21;;;;;;;23.77;19.20;;;;;;;26.58;17.53;102930.24;2221202;86;25743;-89
2022/03/19 07:53:54;;;;;;;25.27;18.10;;;;;;;28.38;16.21;102939.41;2219416;86;25857;-87
2022/03/19 07:57:19;;;;;;;26.95;18.75;;;;;;;29.98;15.07;102946.30;2212258;87;25739;-88
2022/03/19 08:00:48;;;;;;;22.32;16.87;;;;;;;31.51;14.05;102953.58;2195270;86;26062;-88
2022/03/19 08:04:12;;;;;;;17.35;15.38;;;;;;;32.85;13.20;102963.62;2213648;86;25745;-86
2022/03/19 08:07:51;;;;;;;19.32;14.87;;;;;;;34.03;12.52;102968.08;2221949;86;25870;-86
2022/03/19 08:11:15;;;;;;;15.88;14.15;;;;;;;34.86;12.01;102980.89;2223586;86;26013;-89
2022/03/19 08:14:47;;;;;;;15.65;13.43;;;;;;;35.60;11.54;102974.86;2146196;89;26368;-86
2022/03/19 08:18:20;;;;;;;13.88;12.47;;;;;;;36.30;11.20;102985.06;2073581;91;26973;-87
2022/03/19 08:22:00;;;;;;;13.70;12.35;;;;;;;36.97;10.93;102994.28;1981172;95;26073;-89
2022/03/19 08:25:34;;;;;;;13.08;11.88;;;;;;;37.69;10.65;103003.54;1982909;95;25756;-88
2022/03/19 08:28:55;;;;;;;12.98;11.53;;;;;;;38.25;10.43;103000.67;2038708;92;26490;-88
2022/03/19 08:32:20;;;;;;;12.18;11.18;;;;;;;38.79;10.28;103003.77;2087864;92;25942;-85
2022/03/19 08:35:51;;;;;;;11.90;10.63;;;;;;;39.23;10.19;103005.39;2075424;92;25855;-90
2022/03/19 08:43:14;;;;;;;11.53;10.63;;;;;;;40.09;10.03;103016.30;2064271;94;26424;-88
2022/03/19 08:46:43;;;;;;;10.43;9.53;;;;;;;40.62;9.90;103010.44;2006367;95;26013;-84
2022/03/19 08:50:11;;;;;;;;;;;;;;;41.04;9.72;103018.68;2016261;95;25909;-82
2022/03/19 08:53:33;;;;;;;10.18;9.28;;;;;;;41.30;9.59;103010.11;1983173;98;26022;-82
2022/03/19 08:56:54;;;;;;;11.73;9.40;;;;;;;41.55;9.72;103014.47;2023724;95;25944;-82
2022/03/19 09:00:24;;;;;;;11.55;10.40;;;;;;;41.82;9.69;103011.72;2032661;95;25983;-82
2022/03/19 09:04:06;;;;;;;10.13;9.25;;;;;;;42.16;9.53;103019.43;2033317;95;25875;-91
2022/03/19 09:07:25;;;;;;;10.13;9.18;;;;;;;42.43;9.49;103017.14;2013180;95;25566;-83
2022/03/19 09:11:13;;;;;;;;;;;;;;;;;;;;;
2022/03/19 09:14:34;;;;;;;9.68;8.73;;;;;;;42.98;9.39;103017.28;2060509;92;25924;-80
2022/03/19 09:18:07;;;;;;;8.35;7.55;;;;;;;43.26;9.34;103020.26;2108814;92;25802;-83
2022/03/19 09:21:37;;;;;;;8.07;7.47;;;;;;;43.49;9.26;103016.29;2110038;92;25897;-84
2022/03/19 09:25:10;;;;;;;8.63;7.92;;;;;;;43.63;9.28;103024.88;2133623;90;25960;-83
2022/03/19 09:28:52;;;;;;;;;;;;;;;;;;;;;
2022/03/19 09:32:16;;;;;;;8.28;7.55;;;;;;;44.01;9.29;103020.57;2147328;88;25826;-83
2022/03/19 09:35:43;;;;;;;6.87;6.35;;;;;;;44.26;9.24;103014.03;2197306;85;25800;-84
2022/03/19 09:39:17;;;;;;;5.87;5.33;;;;;;;44.45;9.20;103017.11;2263525;85;25762;-82
2022/03/19 09:42:48;;;;;;;7.58;4.65;;;;;;;44.65;9.15;103018.73;2231148;84;25914;-75
2022/03/19 09:46:20;;;;;;;4.55;4.08;;;;;;;44.18;6.77;103009.16;2263481;85;25848;-76
2022/03/19 09:49:49;;;;;;;5.55;5.05;;;;;;;42.05;5.69;103008.80;2310502;80;25840;-75
2022/03/19 09:53:24;;;;;;;4.72;4.42;;;;;;;40.25;5.38;102998.53;2415080;80;25754;-75
2022/03/19 09:56:45;;;;;;;6.15;4.67;;;;;;;38.95;5.47;102993.31;2417872;80;25912;-75
2022/03/19 10:00:14;;;;;;;5.70;5.20;;;;;;;38.03;5.64;102985.91;2408083;80;25615;-75
2022/03/19 10:03:55;;;;;;;5.08;4.67;;;;;;;37.15;5.85;102994.37;2378469;81;25658;-74
2022/03/19 10:11:08;;;;;;;5.20;4.85;;;;;;;35.51;6.16;102979.77;2383850;81;25692;-75
2022/03/19 10:14:37;;;;;;;6.78;5.33;;;;;;;35.13;6.32;102972.19;2388818;80;25735;-74
2022/03/19 10:18:10;;;;;;;5.95;5.45;;;;;;;34.94;6.43;102981.50;2421472;80;25684;-74
2022/03/19 10:21:40;;;;;;;8.93;6.00;;;;;;;34.47;6.57;102970.56;2435302;80;25785;-73
2022/03/19 10:25:17;;;;;;;6.80;6.17;;;;;;;34.09;6.59;102970.59;2424357;81;25663;-73
2022/03/19 10:28:45;;;;;;;10.25;6.58;;;;;;;33.84;6.96;102967.77;2417432;80;25660;-73
2022/03/19 10:32:09;;;;;;;7.67;5.65;;;;;;;33.51;7.02;102964.35;2378212;79;25809;-73
2022/03/19 10:35:38;;;;;;;7.75;6.95;;;;;;;33.29;7.21;102957.38;2378531;80;25715;-73
2022/03/19 10:39:20;;;;;;;6.23;5.63;;;;;;;32.95;7.10;102957.49;2419155;80;25643;-73
2022/03/19 10:42:42;;;;;;;6.03;5.42;;;;;;;32.82;7.24;102954.26;2369601;80;25723;-73
2022/03/19 10:46:04;;;;;;;7.58;4.97;;;;;;;32.74;7.62;102951.78;2423438;80;25712;-73
2022/03/19 10:49:28;;;;;;;9.20;5.28;;;;;;;32.62;8.02;102950.31;2389035;81;26371;-73
2022/03/19 10:52:51;;;;;;;6.42;5.30;;;;;;;32.68;7.99;102953.31;2418596;80;25659;-73
2022/03/19 10:56:12;;;;;;;9.98;6.05;;;;;;;32.29;7.63;102942.64;2420458;80;26412;-72
2022/03/19 10:59:33;;;;;;;8.25;4.80;;;;;;;32.27;8.03;102938.23;2404756;80;25603;-74
2022/03/19 11:03:00;;;;;;;8.38;4.90;;;;;;;32.22;7.85;102932.47;2391097;81;25592;-73
2022/03/19 11:06:20;;;;;;;6.67;4.55;;;;;;;32.14;7.73;102943.07;2393406;80;25915;-74
2022/03/19 11:09:41;;;;;;;4.08;3.60;;;;;;;31.60;8.03;102925.52;2413599;81;25675;-75
2022/03/19 11:13:06;;;;;;;6.95;4.58;;;;;;;31.63;7.80;102930.84;2404820;81;25664;-75
2022/03/19 11:16:32;;;;;;;5.50;4.95;;;;;;;31.66;8.27;102926.72;2394352;80;25747;-73
2022/03/19 11:20:05;;;;;;;5.85;4.85;;;;;;;31.66;8.03;102924.49;2402283;81;25732;-73
2022/03/19 11:23:31;;;;;;;5.65;5.08;;;;;;;31.43;7.88;102924.58;2407810;80;25772;-73
2022/03/19 11:26:54;;;;;;;8.60;5.17;;;;;;;31.43;8.17;102930.44;2399482;81;25861;-73
2022/03/19 11:30:28;;;;;;;5.53;5.00;;;;;;;31.02;8.17;102916.95;2412950;80;25659;-73
2022/03/19 11:33:55;;;;;;;7.92;4.25;;;;;;;30.98;8.68;102907.16;2402288;80;25691;-72
2022/03/19 11:37:16;;;;;;;5.20;4.80;;;;;;;30.68;7.99;102904.63;2405291;81;25689;-74
2022/03/19 11:40:45;;;;;;;6.97;5.47;;;;;;;30.11;8.14;102901.66;2414277;81;25676;-73
2022/03/19 11:44:23;;;;;;;11.53;5.08;;;;;;;29.82;8.10;102897.25;2414303;80;25603;-73
2022/03/19 11:48:08;;;;;;;7.10;4.83;;;;;;;29.71;7.99;102893.87;2413592;80;25730;-74
2022/03/19 11:51:38;;;;;;;8.23;5.42;;;;;;;29.52;8.05;102882.02;2417650;80;25651;-74
2022/03/19 11:55:08;;;;;;;11.05;6.00;;;;;;;29.37;8.09;102877.79;2421664;79;25703;-73
2022/03/19 11:58:46;;;;;;;8.25;6.12;;;;;;;29.50;8.31;102874.45;2392530;80;25579;-74
2022/03/19 12:02:14;;;;;;;6.20;5.30;;;;;;;29.39;8.18;102869.69;2391026;81;25758;-74
2022/03/19 12:05:45;;;;;;;8.55;5.35;;;;;;;28.80;7.95;102879.02;2380755;82;25626;-74
2022/03/19 12:09:14;;;;;;;5.12;4.67;;;;;;;28.49;8.31;102875.83;2335411;83;26172;-73
2022/03/19 12:12:41;;;;;;;5.05;4.60;;;;;;;28.69;8.38;102869.77;2357629;83;25725;-73
2022/03/19 12:16:04;;;;;;;8.98;5.67;;;;;;;28.80;8.19;102872.30;2429411;80;26403;-73
2022/03/19 12:20:04;;;;;;;6.15;5.62;;;;;;;28.78;8.23;102866.05;2429196;80;25647;-72
2022/03/19 12:23:34;;;;;;;7.55;6.33;;;;;;;28.82;8.33;102865.13;2418025;79;25561;-73
2022/03/19 12:27:04;;;;;;;5.58;5.10;;;;;;;28.80;8.43;102867.39;2363657;80;26361;-73
2022/03/19 12:30:26;;;;;;;5.65;5.05;;;;;;;28.89;8.21;102857.42;2366404;82;25565;-73
2022/03/19 12:33:58;;;;;;;5.17;4.78;;;;;;;28.86;8.18;102863.29;2428847;80;25589;-73
2022/03/19 12:37:24;;;;;;;12.10;5.83;;;;;;;28.87;8.19;102872.66;2409397;80;25682;-72
2022/03/19 12:44:30;;;;;;;8.45;4.67;;;;;;;28.43;8.34;102870.07;2396406;80;25761;-73
2022/03/19 12:48:04;;;;;;;6.30;5.70;;;;;;;28.42;8.30;102864.28;2399924;81;26409;-73
2022/03/19 12:51:45;;;;;;;6.05;5.58;;;;;;;28.03;8.17;102866.89;2403805;80;25616;-73
2022/03/19 12:55:21;;;;;;;8.23;5.47;;;;;;;27.78;8.43;102862.23;2407808;80;25693;-73
2022/03/19 12:58:46;;;;;;;7.83;5.92;;;;;;;27.75;8.56;102863.10;2411109;80;25745;-74
2022/03/19 13:02:12;;;;;;;;;;;;;;;27.63;8.31;102860.97;2414259;80;25570;-74
2022/03/19 13:05:34;;;;;;;7.60;6.12;;;;;;;27.55;8.56;102858.36;2411393;81;25642;-73
2022/03/19 13:08:58;;;;;;;6.63;5.83;;;;;;;27.46;8.50;102864.66;2411863;81;25618;-73
2022/03/19 13:12:25;;;;;;;7.10;6.12;;;;;;;27.31;8.55;102858.09;2415066;80;25658;-73
2022/03/19 13:15:49;;;;;;;7.22;6.22;;;;;;;27.23;8.63;102865.27;2375496;81;35153;-74
2022/03/19 13:19:18;;;;;;;7.00;5.87;;;;;;;27.03;8.63;102860.00;2379484;81;25690;-74
2022/03/19 13:22:39;;;;;;;18.17;6.87;;;;;;;26.96;8.84;102855.12;2338988;82;25694;-74
2022/03/19 13:26:03;;;;;;;25.27;6.70;;;;;;;26.87;8.69;102856.99;2387392;81;25781;-74
2022/03/19 13:29:37;;;;;;;5.33;4.90;;;;;;;26.54;8.83;102855.78;2383085;81;43503;-75
2022/03/19 13:33:04;;;;;;;6.85;4.97;;;;;;;26.33;8.73;102855.38;2324825;83;26460;-75
2022/03/19 13:36:29;;;;;;;5.03;4.62;;;;;;;26.06;8.86;102848.76;2392161;81;25650;-74
2022/03/19 13:40:13;;;;;;;5.62;5.22;;;;;;;25.94;8.97;102846.98;2387967;80;25775;-73
2022/03/19 13:43:40;;;;;;;5.95;5.05;;;;;;;25.80;8.92;102840.77;2398148;79;25624;-76
2022/03/19 13:47:27;;;;;;;8.10;4.92;;;;;;;25.68;9.15;102828.25;2390038;80;26502;-74
2022/03/19 13:51:01;;;;;;;11.18;5.55;;;;;;;25.48;9.18;102839.38;2370721;82;25268;-73
2022/03/19 13:54:47;;;;;;;6.50;5.97;;;;;;;25.14;9.40;102834.00;2403599;80;25782;-74
2022/03/19 13:58:15;;;;;;;5.40;4.97;;;;;;;25.13;9.93;102822.43;2389870;81;25820;-75
2022/03/19 14:01:39;;;;;;;6.12;5.42;;;;;;;25.20;9.63;102827.34;2413187;80;25822;-74
2022/03/19 14:05:11;;;;;;;12.10;6.15;;;;;;;25.03;9.82;102813.92;2394196;80;26560;-75
2022/03/19 14:08:34;;;;;;;9.33;6.87;;;;;;;25.10;10.43;102818.83;2286174;84;26365;-73
2022/03/19 14:11:55;;;;;;;6.17;5.05;;;;;;;25.11;10.17;102818.89;2291282;84;25727;-75
2022/03/19 14:15:19;;;;;;;6.17;5.55;;;;;;;24.75;10.02;102822.30;2293446;84;25738;-75
2022/03/19 14:19:01;;;;;;;7.50;5.65;;;;;;;24.22;10.20;102827.80;2249102;86;25754;-76
2022/03/19 14:22:15;;;;;;;6.97;5.42;;;;;;;24.14;10.33;102828.65;2305374;84;25678;-75
2022/03/19 14:25:42;;;;;;;6.05;5.55;;;;;;;24.27;10.32;102835.84;2310030;83;26009;-74
2022/03/19 14:29:05;;;;;;;8.70;6.05;;;;;;;23.99;9.97;102830.30;2303147;83;25716;-75
2022/03/19 14:32:31;;;;;;;8.80;5.37;;;;;;;23.40;10.26;102820.50;2329882;84;25902;-77
2022/03/19 14:35:59;;;;;;;5.90;5.30;;;;;;;22.81;10.42;102825.19;2330006;83;25695;-80
2022/03/19 14:39:25;;;;;;;7.72;5.37;;;;;;;22.42;10.63;102828.66;2268385;83;25790;-75
2022/03/19 14:43:01;;;;;;;7.40;5.72;;;;;;;21.61;10.85;102822.98;2329287;84;25850;-75
2022/03/19 14:46:36;;;;;;;15.90;6.58;;;;;;;21.00;11.06;102817.42;2325409;83;25294;-79
2022/03/19 14:49:58;;;;;;;13.25;6.45;;;;;;;20.45;11.13;102829.48;2336690;83;25785;-76
2022/03/19 14:53:20;;;;;;;13.90;6.10;;;;;;;19.86;11.28;102821.08;2331735;83;25817;-75
2022/03/19 14:56:45;;;;;;;7.95;6.20;;;;;;;19.19;11.69;102818.45;2328710;84;25814;-74
2022/03/19 15:00:29;;;;;;;13.22;6.35;;;;;;;18.83;11.96;102817.01;2329501;84;26064;-75
2022/03/19 15:03:53;;;;;;;8.65;6.22;;;;;;;18.43;12.38;102810.55;2339913;80;25284;-75
2022/03/19 15:07:20;;;;;;;10.32;6.90;;;;;;;17.96;12.60;102812.62;2425312;80;25762;-74
2022/03/19 15:10:45;;;;;;;11.55;6.75;;;;;;;17.83;12.97;102810.00;2408100;80;25897;-83
2022/03/19 15:14:09;;;;;;;6.75;5.35;;;;;;;17.71;13.67;102813.08;2389165;80;26448;-84
2022/03/19 15:17:46;;;;;;;5.55;4.95;;;;;;;18.07;14.28;102815.59;2418267;80;25840;-85
2022/03/19 15:21:18;;;;;;;10.20;5.17;;;;;;;18.46;15.04;102810.65;2244794;86;25708;-87
2022/03/19 15:24:49;;;;;;;6.58;5.97;;;;;;;18.75;15.73;102807.55;2245921;86;25684;-84
2022/03/19 15:28:15;;;;;;;7.10;4.95;;;;;;;19.03;16.26;102814.49;2217949;87;25669;-84
2022/03/19 15:31:52;;;;;;;;;;;;;;;;;;;;;
2022/03/19 15:35:14;;;;;;;10.00;5.87;;;;;;;19.17;16.66;102806.05;2227527;87;26618;-85
2022/03/19 15:38:53;;;;;;;8.23;6.25;;;;;;;18.97;16.21;102811.71;2204205;86;31089;-87
2022/03/19 15:42:26;;;;;;;7.42;6.10;;;;;;;18.74;15.96;102815.02;2217959;87;25809;-86
2022/03/19 15:45:51;;;;;;;7.60;5.83;;;;;;;18.47;15.79;102806.25;2221594;86;26361;-86
2022/03/19 15:49:14;;;;;;;9.50;7.25;;;;;;;18.23;15.52;102807.73;2150606;90;25946;-87
2022/03/19 15:52:42;;;;;;;9.60;7.87;;;;;;;17.97;15.47;102806.48;2109641;90;25830;-84
2022/03/19 15:56:07;;;;;;;11.25;6.45;;;;;;;17.74;15.53;102803.48;2039350;94;25708;-87
2022/03/19 15:59:55;;;;;;;10.35;8.15;;;;;;;17.59;15.40;102803.89;2022007;95;26592;-85
2022/03/19 16:03:22;;;;;;;10.23;7.60;;;;;;;17.42;15.76;102801.58;2050985;95;25851;-84
2022/03/19 16:06:58;;;;;;;15.50;8.50;;;;;;;17.19;15.77;102802.09;2048565;94;25860;-85
2022/03/19 16:10:25;;;;;;;13.83;8.25;;;;;;;17.02;15.92;102803.67;2064949;92;25768;-86
2022/03/19 16:13:46;;;;;;;12.43;7.75;;;;;;;16.79;15.94;102799.77;2071419;92;25832;-88
2022/03/19 16:17:09;;;;;;;9.63;6.97;;;;;;;16.69;16.10;102814.30;2080904;92;25781;-85
2022/03/19 16:20:34;;;;;;;11.97;7.08;;;;;;;16.58;15.94;102818.70;2084907;93;25747;-84
2022/03/19 16:23:58;;;;;;;7.53;6.40;;;;;;;16.45;15.97;102818.22;2085445;92;25838;-84
2022/03/19 16:27:26;;;;;;;8.28;7.20;;;;;;;16.33;15.95;102813.79;2078658;93;26460;-86
2022/03/19 16:31:00;;;;;;;9.80;6.70;;;;;;;16.25;16.07;102819.19;2114369;90;25948;-85
2022/03/19 16:34:37;;;;;;;10.43;7.12;;;;;;;16.11;16.14;102815.12;2205055;88;25769;-86
2022/03/19 16:38:00;;;;;;;12.05;8.65;;;;;;;15.96;16.25;102812.76;2214305;88;25805;-85
2022/03/19 16:41:30;;;;;;;13.98;8.08;;;;;;;15.85;16.29;102814.95;2200804;88;25755;-84
2022/03/19 16:44:58;;;;;;;8.28;7.53;;;;;;;15.76;16.39;102816.81;2241898;84;32890;-85
2022/03/19 16:48:25;;;;;;;12.28;7.33;;;;;;;15.67;16.47;102819.05;2322370;83;25785;-85
2022/03/19 16:52:12;;;;;;;7.33;6.20;;;;;;;15.50;16.59;102824.89;2343634;82;25813;-83
2022/03/19 16:55:45;;;;;;;7.40;6.70;;;;;;;15.40;16.66;102821.81;2237014;87;25783;-86
2022/03/19 16:59:23;;;;;;;;;;;;;;;;;;;;;